Larache, Morocco
Current Conditions -  °F | °C
As of 10:00 AM on Wednesday 28 Jan 2015 (Local Time) from GMTT Reporting Station
Scattered Clouds Scattered Clouds  
Wind Chill: 50°   Ceiling: Unl
Heat Index: 50°   Visibility: 5mi
Dew Point: 46°   Wind: 10mph
Humidity: 87%   Direction: 210°SSW
Pressure: 30.33"   Gusts: NA
Location:  35.2°N, 6.16°W
Report Text: GMTT 280900Z 21009KT 8000 SCT016 10/08 Q1027 NOSIG
Loading
Personal Weather Stations






























Interactive Weather Map New forecast layout! Learn more

10-Day Weather Forecast

Advertisements
Track Severe Weather on mobile